Time;durP1;ratioP1;P1;durP2;ratioP2;P2;SDS_P1;SDS_P2;PMS_P1;PMS_P2;Temp;Humidity;BMP_temperature;BMP_pressure;BME280_temperature;BME280_humidity;BME280_pressure;Samples;Min_cycle;Max_cycle;Signal;HPM_P1;HPM_P2
2022/10/03 00:01:00;;;;;;;;;;;12.60;99.90;;;;;;5094744;22;19966;-71
2022/10/03 00:03:34;;;;;;;;;;;12.60;99.90;;;;;;5062584;28;19967;-69
2022/10/03 00:06:08;;;;;;;;;;;12.60;99.90;;;;;;5065534;28;19966;-70
2022/10/03 00:08:43;;;;;;;;;;;12.70;99.90;;;;;;5065410;28;19966;-69
2022/10/03 00:11:15;;;;;;;;;;;12.70;99.90;;;;;;5068967;28;20443;-69
2022/10/03 00:13:48;;;;;;;;;;;12.60;99.90;;;;;;5071664;28;19973;-70
2022/10/03 00:16:20;;;;;;;;;;;12.60;99.90;;;;;;5070960;28;20061;-70
2022/10/03 00:18:54;;;;;;;;;;;12.50;99.90;;;;;;5071014;28;19967;-70
2022/10/03 00:21:27;;;;;;;;;;;12.40;99.90;;;;;;5068988;28;19966;-70
2022/10/03 00:24:00;;;;;;;;;;;12.40;99.90;;;;;;5069105;28;19966;-70
2022/10/03 00:26:34;;;;;;;;;;;12.50;99.90;;;;;;5065187;28;19967;-70
2022/10/03 00:29:12;;;;;;;;;;;12.40;99.90;;;;;;5071517;28;20057;-70
2022/10/03 00:31:46;;;;;;;;;;;12.50;99.90;;;;;;5071236;28;20439;-70
2022/10/03 00:34:21;;;;;;;;;;;12.50;99.90;;;;;;5071462;28;19966;-69
2022/10/03 00:36:50;;;;;;;;;;;12.60;99.90;;;;;;5071460;28;19994;-70
2022/10/03 00:39:25;;;;;;;;;;;12.60;99.90;;;;;;5070933;28;20320;-68
2022/10/03 00:42:11;;;;;;;;;;;12.60;99.90;;;;;;5069040;28;19966;-69
2022/10/03 00:44:51;;;;;;;;;;;12.70;99.90;;;;;;5066790;28;19967;-69
2022/10/03 00:47:31;;;;;;;;;;;12.70;99.90;;;;;;5063470;28;20521;-72
2022/10/03 00:50:07;;;;;;;;;;;12.70;99.90;;;;;;5068059;28;19966;-66
2022/10/03 00:52:49;;;;;;;;;;;12.60;99.90;;;;;;5064677;28;19962;-69
2022/10/03 00:55:21;;;;;;;;;;;12.60;99.90;;;;;;5062644;28;19966;-69
2022/10/03 00:57:58;;;;;;;;;;;12.60;99.90;;;;;;5064653;28;19966;-69
2022/10/03 01:00:27;;;;;;;;;;;12.50;99.90;;;;;;5068736;28;19966;-69
2022/10/03 01:03:05;;;;;;;;;;;12.40;99.90;;;;;;5073169;28;20451;-69
2022/10/03 01:05:40;;;;;;;;;;;12.30;99.90;;;;;;5071261;28;19962;-69
2022/10/03 01:08:21;;;;;;;;;;;12.20;99.90;;;;;;5067295;28;19946;-69
2022/10/03 01:10:52;;;;;;;;;;;12.20;99.90;;;;;;5071111;28;19967;-69
2022/10/03 01:13:28;;;;;;;;;;;12.20;99.90;;;;;;5072103;28;19973;-69
2022/10/03 01:15:58;;;;;;;;;;;12.20;99.90;;;;;;5070146;28;20443;-69
2022/10/03 01:18:36;;;;;;;;;;;12.20;99.90;;;;;;5067732;28;19971;-69
2022/10/03 01:21:08;;;;;;;;;;;12.20;99.90;;;;;;5067649;28;20074;-70
2022/10/03 01:23:51;;;;;;;;;;;12.00;99.90;;;;;;5062881;28;19970;-69
2022/10/03 01:26:24;;;;;;;;;;;12.00;99.90;;;;;;5068335;28;19966;-70
2022/10/03 01:31:46;;;;;;;;;;;12.10;99.90;;;;;;5063498;28;19962;-70
2022/10/03 01:34:18;;;;;;;;;;;12.10;99.90;;;;;;5068355;28;19967;-69
2022/10/03 01:36:51;;;;;;;;;;;12.10;99.90;;;;;;5065096;28;19963;-71
2022/10/03 01:39:23;;;;;;;;;;;12.00;99.90;;;;;;5070284;28;19966;-70
2022/10/03 01:41:57;;;;;;;;;;;12.10;99.90;;;;;;5070133;28;20077;-70
2022/10/03 01:44:31;;;;;;;;;;;12.00;99.90;;;;;;5070880;28;19966;-70
2022/10/03 01:47:07;;;;;;;;;;;12.00;99.90;;;;;;5068792;28;19973;-70
2022/10/03 01:49:39;;;;;;;;;;;11.90;99.90;;;;;;5063522;28;19968;-68
2022/10/03 01:52:10;;;;;;;;;;;11.90;99.90;;;;;;5070401;28;20626;-69
2022/10/03 01:54:40;;;;;;;;;;;11.90;99.90;;;;;;5071531;28;19985;-69
2022/10/03 01:57:13;;;;;;;;;;;11.80;99.90;;;;;;5067519;28;20060;-69
2022/10/03 01:59:46;;;;;;;;;;;11.80;99.90;;;;;;5062187;28;19972;-70
2022/10/03 02:02:20;;;;;;;;;;;11.80;99.90;;;;;;5071514;28;19967;-70
2022/10/03 02:04:52;;;;;;;;;;;11.70;99.90;;;;;;5065759;28;20469;-70
2022/10/03 02:07:23;;;;;;;;;;;11.70;99.90;;;;;;5071378;28;19966;-71
2022/10/03 02:10:00;;;;;;;;;;;11.70;99.90;;;;;;5071968;28;19977;-70
2022/10/03 02:12:33;;;;;;;;;;;11.60;99.90;;;;;;5065762;28;20093;-69
2022/10/03 02:15:08;;;;;;;;;;;11.60;99.90;;;;;;5073438;28;20408;-71
2022/10/03 02:17:44;;;;;;;;;;;11.70;99.90;;;;;;5073302;28;19966;-71
2022/10/03 02:20:22;;;;;;;;;;;11.60;99.90;;;;;;5060982;28;20467;-70
2022/10/03 02:22:52;;;;;;;;;;;11.60;99.90;;;;;;5058349;28;19967;-70
2022/10/03 02:25:29;;;;;;;;;;;11.60;99.90;;;;;;5071199;28;20439;-70
2022/10/03 02:28:15;;;;;;;;;;;11.60;99.90;;;;;;5070476;28;19967;-70
2022/10/03 02:30:56;;;;;;;;;;;11.60;99.90;;;;;;5069593;28;20444;-71
2022/10/03 02:33:45;;;;;;;;;;;11.60;99.90;;;;;;5069932;28;19963;-70
2022/10/03 02:36:30;;;;;;;;;;;11.60;99.90;;;;;;5061485;28;19988;-70
2022/10/03 02:39:08;;;;;;;;;;;11.70;99.90;;;;;;5070060;28;19966;-68
2022/10/03 02:41:54;;;;;;;;;;;11.70;99.90;;;;;;5065468;28;19962;-68
2022/10/03 02:44:37;;;;;;;;;;;11.70;99.90;;;;;;5068766;28;19966;-72
2022/10/03 02:47:21;;;;;;;;;;;11.70;99.90;;;;;;5066469;28;20773;-70
2022/10/03 02:50:04;;;;;;;;;;;11.60;99.90;;;;;;5060788;28;19966;-69
2022/10/03 02:52:52;;;;;;;;;;;11.60;99.90;;;;;;5067764;28;19969;-69
2022/10/03 02:55:35;;;;;;;;;;;11.60;99.90;;;;;;5065507;28;19970;-69
2022/10/03 02:58:32;;;;;;;;;;;11.60;99.90;;;;;;5065580;28;19966;-70
2022/10/03 03:01:14;;;;;;;;;;;11.60;99.90;;;;;;5045914;28;19967;-70
2022/10/03 03:04:00;;;;;;;;;;;11.50;99.90;;;;;;5022268;28;20021;-69
2022/10/03 03:06:37;;;;;;;;;;;11.50;99.90;;;;;;5035191;28;20045;-70
2022/10/03 03:09:29;;;;;;;;;;;11.50;99.90;;;;;;5040876;28;20057;-70
2022/10/03 03:12:09;;;;;;;;;;;11.50;99.90;;;;;;5042981;28;19967;-69
2022/10/03 03:14:50;;;;;;;;;;;11.60;99.90;;;;;;5047274;28;19970;-70
2022/10/03 03:17:23;;;;;;;;;;;11.60;99.90;;;;;;5047568;28;19966;-70
2022/10/03 03:20:02;;;;;;;;;;;11.70;99.90;;;;;;5051088;28;20341;-70
2022/10/03 03:22:36;;;;;;;;;;;11.70;99.90;;;;;;5050131;28;19963;-69
2022/10/03 03:25:13;;;;;;;;;;;11.80;99.90;;;;;;5049554;28;20461;-69
2022/10/03 03:27:47;;;;;;;;;;;11.90;99.90;;;;;;5044658;28;19974;-70
2022/10/03 03:30:16;;;;;;;;;;;12.00;99.90;;;;;;5045064;28;19967;-69
2022/10/03 03:32:48;;;;;;;;;;;12.00;99.90;;;;;;5050966;28;19963;-70
2022/10/03 03:35:22;;;;;;;;;;;12.10;99.90;;;;;;5051972;28;19967;-69
2022/10/03 03:37:54;;;;;;;;;;;12.10;99.90;;;;;;5044506;28;19967;-69
2022/10/03 03:40:31;;;;;;;;;;;12.10;99.90;;;;;;5051300;28;19974;-69
2022/10/03 03:43:09;;;;;;;;;;;12.20;99.90;;;;;;5048445;28;19967;-70
2022/10/03 03:45:43;;;;;;;;;;;12.20;99.90;;;;;;5051202;28;19963;-69
2022/10/03 03:48:21;;;;;;;;;;;12.20;99.90;;;;;;5048682;28;20066;-69
2022/10/03 03:50:56;;;;;;;;;;;12.20;99.90;;;;;;5044753;28;20061;-70
2022/10/03 03:53:49;;;;;;;;;;;12.20;99.90;;;;;;5048278;28;19967;-69
2022/10/03 03:56:38;;;;;;;;;;;12.20;99.90;;;;;;5050320;28;19989;-70
2022/10/03 03:59:14;;;;;;;;;;;12.20;99.90;;;;;;5046863;28;19967;-69
2022/10/03 04:01:48;;;;;;;;;;;12.30;99.90;;;;;;5049047;28;19977;-69
2022/10/03 04:04:22;;;;;;;;;;;12.30;99.90;;;;;;5052554;28;19978;-69
2022/10/03 04:06:57;;;;;;;;;;;12.30;99.90;;;;;;5054527;28;19973;-69
2022/10/03 04:09:31;;;;;;;;;;;12.20;99.90;;;;;;5052937;28;19967;-69
2022/10/03 04:12:08;;;;;;;;;;;12.30;99.90;;;;;;5053666;28;19973;-70
2022/10/03 04:14:44;;;;;;;;;;;12.30;99.90;;;;;;5058325;28;20077;-70
2022/10/03 04:20:12;;;;;;;;;;;12.20;99.90;;;;;;5051162;28;19973;-70
2022/10/03 04:22:46;;;;;;;;;;;12.10;99.90;;;;;;5046855;28;19977;-69
2022/10/03 04:25:21;;;;;;;;;;;12.10;99.90;;;;;;5048935;28;19967;-69
2022/10/03 04:28:09;;;;;;;;;;;12.10;99.90;;;;;;5045678;28;19967;-69
2022/10/03 04:30:44;;;;;;;;;;;12.20;99.90;;;;;;5053236;28;19998;-68
2022/10/03 04:33:18;;;;;;;;;;;12.20;99.90;;;;;;5058663;28;19973;-69
2022/10/03 04:35:55;;;;;;;;;;;12.30;99.90;;;;;;5050775;28;19964;-70
2022/10/03 04:38:37;;;;;;;;;;;12.30;99.90;;;;;;5054417;28;19973;-70
2022/10/03 04:41:08;;;;;;;;;;;12.30;99.90;;;;;;5056477;28;19966;-70
2022/10/03 04:43:42;;;;;;;;;;;12.20;99.90;;;;;;5052754;28;19963;-69
2022/10/03 04:46:16;;;;;;;;;;;12.20;99.90;;;;;;5056018;28;20062;-68
2022/10/03 04:48:47;;;;;;;;;;;12.10;99.90;;;;;;5051989;28;20443;-70
2022/10/03 04:51:19;;;;;;;;;;;12.10;99.90;;;;;;5058135;28;19966;-69
2022/10/03 04:53:53;;;;;;;;;;;12.10;99.90;;;;;;5056606;28;19971;-69
2022/10/03 04:56:28;;;;;;;;;;;12.00;99.90;;;;;;5065682;28;20339;-70
2022/10/03 04:59:03;;;;;;;;;;;11.90;99.90;;;;;;5055356;28;19962;-69
2022/10/03 05:01:35;;;;;;;;;;;12.00;99.90;;;;;;5059571;28;20002;-69
2022/10/03 05:04:09;;;;;;;;;;;11.80;99.90;;;;;;5047428;28;20347;-70
2022/10/03 05:06:42;;;;;;;;;;;11.90;99.90;;;;;;5055811;28;20435;-70
2022/10/03 05:09:18;;;;;;;;;;;11.90;99.90;;;;;;5064077;28;19967;-69
2022/10/03 05:11:53;;;;;;;;;;;11.90;99.90;;;;;;5060093;28;19966;-70
2022/10/03 05:14:24;;;;;;;;;;;12.00;99.90;;;;;;5058269;28;19971;-69
2022/10/03 05:16:55;;;;;;;;;;;12.00;99.90;;;;;;5060391;28;20491;-70
2022/10/03 05:19:36;;;;;;;;;;;12.00;99.90;;;;;;5046905;28;19971;-70
2022/10/03 05:22:08;;;;;;;;;;;12.10;99.90;;;;;;5044840;28;19969;-70
2022/10/03 05:24:44;;;;;;;;;;;12.10;99.90;;;;;;5052953;28;19970;-70
2022/10/03 05:27:19;;;;;;;;;;;12.10;99.90;;;;;;5046814;28;20342;-70
2022/10/03 05:29:51;;;;;;;;;;;12.20;99.90;;;;;;5051129;28;19990;-71
2022/10/03 05:32:23;;;;;;;;;;;12.20;99.90;;;;;;5049449;28;20432;-70
2022/10/03 05:35:05;;;;;;;;;;;12.30;99.90;;;;;;5051249;28;19989;-71
2022/10/03 05:37:39;;;;;;;;;;;12.30;99.90;;;;;;5038524;28;19963;-71
2022/10/03 05:40:15;;;;;;;;;;;12.30;99.90;;;;;;5051477;28;19973;-71
2022/10/03 05:43:00;;;;;;;;;;;12.30;99.90;;;;;;5045817;28;19967;-70
2022/10/03 05:45:30;;;;;;;;;;;12.30;99.90;;;;;;5050607;28;19967;-70
2022/10/03 05:48:16;;;;;;;;;;;12.40;99.90;;;;;;5048735;28;19970;-70
2022/10/03 05:50:57;;;;;;;;;;;12.40;99.90;;;;;;5052275;28;19963;-71
2022/10/03 05:53:39;;;;;;;;;;;12.30;99.90;;;;;;5049789;28;20447;-70
2022/10/03 05:56:14;;;;;;;;;;;12.20;99.90;;;;;;5020394;28;19966;-71
2022/10/03 05:58:50;;;;;;;;;;;12.20;99.90;;;;;;5045920;28;19967;-71
2022/10/03 06:01:30;;;;;;;;;;;12.20;99.90;;;;;;5092653;22;19963;-62
2022/10/03 06:04:07;;;;;;;;;;;12.10;99.90;;;;;;5091708;28;20379;-63
2022/10/03 06:06:42;;;;;;;;;;;12.10;99.90;;;;;;5088899;28;19989;-61
2022/10/03 06:09:29;;;;;;;;;;;12.10;99.90;;;;;;5090870;28;20336;-62
2022/10/03 06:12:06;;;;;;;;;;;12.10;99.90;;;;;;5090353;28;21394;-62
2022/10/03 06:14:53;;;;;;;;;;;12.10;99.90;;;;;;5091975;28;20442;-62
2022/10/03 06:17:28;;;;;;;;;;;12.10;99.90;;;;;;5075246;28;19976;-62
2022/10/03 06:20:02;;;;;;;;;;;12.10;99.90;;;;;;5090081;28;20432;-62
2022/10/03 06:22:49;;;;;;;;;;;12.00;99.90;;;;;;5090413;28;19962;-63
2022/10/03 06:25:35;;;;;;;;;;;12.10;99.90;;;;;;5085822;28;20314;-63
2022/10/03 06:28:25;;;;;;;;;;;12.00;99.90;;;;;;5080917;28;20331;-61
2022/10/03 06:30:58;;;;;;;;;;;12.00;99.90;;;;;;5085831;28;19973;-62
2022/10/03 06:33:48;;;;;;;;;;;12.00;99.90;;;;;;5089876;28;20079;-63
2022/10/03 06:36:34;;;;;;;;;;;12.00;99.90;;;;;;5092567;28;19968;-63
2022/10/03 06:39:25;;;;;;;;;;;12.20;99.90;;;;;;5096607;28;19962;-63
2022/10/03 06:42:18;;;;;;;;;;;12.10;99.90;;;;;;5091953;28;20485;-63
2022/10/03 06:44:56;;;;;;;;;;;12.20;99.90;;;;;;5090817;28;20439;-63
2022/10/03 06:47:36;;;;;;;;;;;12.40;99.90;;;;;;5087962;28;20456;-62
2022/10/03 06:50:12;;;;;;;;;;;13.20;99.90;;;;;;5092364;28;19962;-62
2022/10/03 06:52:46;;;;;;;;;;;13.80;99.90;;;;;;5087739;28;19958;-61
2022/10/03 06:55:35;;;;;;;;;;;13.80;99.90;;;;;;5088103;28;20456;-62
2022/10/03 06:58:13;;;;;;;;;;;13.90;99.90;;;;;;5091014;28;20422;-62
2022/10/03 07:00:49;;;;;;;;;;;14.00;99.90;;;;;;5091302;28;19958;-62
2022/10/03 07:03:24;;;;;;;;;;;14.10;99.90;;;;;;5086187;28;19962;-62
2022/10/03 07:06:13;;;;;;;;;;;13.80;99.90;;;;;;5084810;28;19963;-62
2022/10/03 07:08:54;;;;;;;;;;;13.70;99.90;;;;;;5087901;28;19971;-61
2022/10/03 07:11:31;;;;;;;;;;;13.50;99.90;;;;;;5093617;28;19961;-63
2022/10/03 07:14:20;;;;;;;;;;;13.50;99.90;;;;;;5091999;28;19973;-63
2022/10/03 07:16:55;;;;;;;;;;;13.60;99.90;;;;;;5091249;28;20422;-62
2022/10/03 07:19:44;;;;;;;;;;;13.60;99.90;;;;;;5092957;28;20057;-63
2022/10/03 07:22:30;;;;;;;;;;;13.50;99.90;;;;;;5085415;28;19972;-62
2022/10/03 07:25:17;;;;;;;;;;;13.20;99.90;;;;;;5085803;28;20001;-62
2022/10/03 07:27:52;;;;;;;;;;;13.10;99.90;;;;;;5090500;28;19966;-62
2022/10/03 07:30:20;;;;;;;;;;;13.00;99.90;;;;;;5089221;28;19973;-62
2022/10/03 07:33:06;;;;;;;;;;;12.90;99.90;;;;;;5094087;28;20015;-62
2022/10/03 07:38:59;;;;;;;;;;;12.90;99.90;;;;;;5081226;28;19962;-62
2022/10/03 07:41:51;;;;;;;;;;;12.80;99.90;;;;;;5096068;28;19962;-62
2022/10/03 07:44:31;;;;;;;;;;;12.80;99.90;;;;;;5079383;28;19966;-62
2022/10/03 07:47:12;;;;;;;;;;;12.70;99.90;;;;;;5090721;28;19969;-62
2022/10/03 07:49:50;;;;;;;;;;;12.80;99.90;;;;;;5087154;28;19985;-62
2022/10/03 07:52:33;;;;;;;;;;;12.80;99.90;;;;;;5093051;28;19958;-62
2022/10/03 07:55:28;;;;;;;;;;;12.90;99.90;;;;;;5088767;28;19964;-62
2022/10/03 07:58:11;;;;;;;;;;;13.00;99.90;;;;;;5058691;28;20310;-62
2022/10/03 08:00:46;;;;;;;;;;;13.00;99.90;;;;;;5093549;28;20054;-62
2022/10/03 08:03:29;;;;;;;;;;;13.10;99.90;;;;;;5090900;28;20052;-61
2022/10/03 08:06:15;;;;;;;;;;;13.10;99.90;;;;;;5089183;28;20442;-62
2022/10/03 08:09:01;;;;;;;;;;;13.10;99.90;;;;;;5083562;28;19993;-62
2022/10/03 08:11:36;;;;;;;;;;;13.10;99.90;;;;;;5085594;28;19962;-62
2022/10/03 08:14:16;;;;;;;;;;;13.20;99.90;;;;;;5091243;28;19962;-62
2022/10/03 08:17:00;;;;;;;;;;;13.40;99.90;;;;;;5085846;28;19958;-62
2022/10/03 08:19:36;;;;;;;;;;;13.50;99.90;;;;;;5088463;28;19960;-62
2022/10/03 08:22:09;;;;;;;;;;;13.60;99.90;;;;;;5089404;28;19962;-61
2022/10/03 08:24:49;;;;;;;;;;;13.80;99.90;;;;;;5089351;28;20005;-61
2022/10/03 08:27:28;;;;;;;;;;;14.00;99.90;;;;;;5088146;28;20456;-65
2022/10/03 08:30:12;;;;;;;;;;;14.20;99.90;;;;;;5080790;28;19966;-63
2022/10/03 08:32:55;;;;;;;;;;;14.70;99.90;;;;;;5088812;28;19938;-63
2022/10/03 08:35:30;;;;;;;;;;;14.90;99.90;;;;;;5088996;28;19962;-63
2022/10/03 08:38:11;;;;;;;;;;;15.10;99.90;;;;;;5088704;28;20394;-63
2022/10/03 08:41:07;;;;;;;;;;;15.30;99.90;;;;;;5085925;28;19965;-63
2022/10/03 08:43:49;;;;;;;;;;;15.40;99.90;;;;;;5087092;28;19975;-63
2022/10/03 08:46:45;;;;;;;;;;;15.40;99.90;;;;;;5080327;28;19966;-63
2022/10/03 08:49:22;;;;;;;;;;;15.80;99.90;;;;;;5083992;28;19958;-63
2022/10/03 08:52:00;;;;;;;;;;;16.10;99.90;;;;;;5085365;28;20340;-63
2022/10/03 08:54:46;;;;;;;;;;;16.50;99.90;;;;;;5087487;28;20076;-63
2022/10/03 08:57:21;;;;;;;;;;;16.90;99.90;;;;;;5090771;28;19962;-61
2022/10/03 09:00:07;;;;;;;;;;;17.20;99.90;;;;;;5088676;28;20439;-62
2022/10/03 09:02:52;;;;;;;;;;;17.40;99.90;;;;;;5091242;28;19965;-63
2022/10/03 09:06:02;;;;;;;;;;;17.70;99.90;;;;;;5091452;28;19963;-62
2022/10/03 09:08:43;;;;;;;;;;;17.70;99.90;;;;;;5092175;28;20353;-63
2022/10/03 09:11:30;;;;;;;;;;;17.60;99.90;;;;;;5101434;28;19976;-62
2022/10/03 09:14:19;;;;;;;;;;;17.70;99.90;;;;;;5091181;28;19986;-62
2022/10/03 09:16:51;;;;;;;;;;;17.90;99.90;;;;;;5093621;28;19977;-63
2022/10/03 09:19:25;;;;;;;;;;;18.10;99.90;;;;;;5095071;28;20060;-62
2022/10/03 09:22:08;;;;;;;;;;;18.10;99.90;;;;;;5094821;28;20434;-63
2022/10/03 09:25:04;;;;;;;;;;;18.20;99.90;;;;;;5094490;28;19976;-63
2022/10/03 09:27:41;;;;;;;;;;;18.30;99.90;;;;;;5094880;28;19966;-63
2022/10/03 09:30:23;;;;;;;;;;;18.40;99.90;;;;;;5094522;28;19970;-63
2022/10/03 09:33:06;;;;;;;;;;;18.30;99.90;;;;;;5088436;28;19972;-63
2022/10/03 09:35:52;;;;;;;;;;;18.20;99.90;;;;;;5094532;28;20414;-63
2022/10/03 09:38:34;;;;;;;;;;;18.20;99.90;;;;;;5095886;28;20426;-63
2022/10/03 09:41:21;;;;;;;;;;;18.20;99.90;;;;;;5089423;28;20007;-63
2022/10/03 09:44:08;;;;;;;;;;;18.50;99.90;;;;;;5090861;28;19969;-63
2022/10/03 09:47:21;;;;;;;;;;;18.70;99.90;;;;;;5094489;28;19966;-63
2022/10/03 09:49:45;;;;;;;;;;;18.90;99.90;;;;;;5094629;28;19945;-63
2022/10/03 09:52:23;;;;;;;;;;;19.20;99.90;;;;;;5094287;28;19988;-63
2022/10/03 09:55:01;;;;;;;;;;;19.60;99.90;;;;;;5094184;28;19962;-63
2022/10/03 09:57:45;;;;;;;;;;;19.70;99.90;;;;;;5088518;28;19962;-63
2022/10/03 10:00:30;;;;;;;;;;;19.60;99.90;;;;;;5093814;28;20452;-63
2022/10/03 10:03:16;;;;;;;;;;;19.30;99.90;;;;;;5074110;28;19973;-63
2022/10/03 10:05:56;;;;;;;;;;;19.20;99.90;;;;;;5073894;28;20410;-63
2022/10/03 10:08:38;;;;;;;;;;;19.00;99.90;;;;;;5075211;28;19973;-62
2022/10/03 10:11:13;;;;;;;;;;;19.30;99.90;;;;;;5081671;28;19975;-63
2022/10/03 10:14:02;;;;;;;;;;;19.30;99.90;;;;;;5073541;28;20391;-63
2022/10/03 10:16:41;;;;;;;;;;;19.60;99.90;;;;;;5073705;28;19966;-63
2022/10/03 10:19:22;;;;;;;;;;;19.60;99.90;;;;;;5073697;28;20067;-63
2022/10/03 10:22:04;;;;;;;;;;;20.10;99.90;;;;;;5073182;28;20470;-63
2022/10/03 10:24:45;;;;;;;;;;;19.90;99.90;;;;;;5073283;28;19962;-63
2022/10/03 10:27:24;;;;;;;;;;;19.60;99.90;;;;;;5073113;28;19989;-63
2022/10/03 10:30:09;;;;;;;;;;;19.20;99.90;;;;;;5073216;28;19963;-63
2022/10/03 10:32:54;;;;;;;;;;;19.00;99.90;;;;;;5066709;28;20423;-63
2022/10/03 10:35:51;;;;;;;;;;;18.70;99.90;;;;;;5073516;28;19984;-63
2022/10/03 10:38:24;;;;;;;;;;;18.50;99.90;;;;;;5074408;28;19990;-63
2022/10/03 10:41:18;;;;;;;;;;;18.60;99.90;;;;;;5066624;28;20469;-63
2022/10/03 10:44:04;;;;;;;;;;;18.90;99.90;;;;;;5070108;28;20010;-63
2022/10/03 10:46:45;;;;;;;;;;;19.40;99.90;;;;;;5073174;28;19990;-63
2022/10/03 10:49:27;;;;;;;;;;;19.60;99.90;;;;;;5072917;28;19962;-63
2022/10/03 10:52:15;;;;;;;;;;;20.00;99.90;;;;;;5072688;28;19977;-63
2022/10/03 10:55:22;;;;;;;;;;;20.10;99.90;;;;;;5072711;28;19976;-63
2022/10/03 10:58:09;;;;;;;;;;;19.60;99.90;;;;;;5072766;28;19978;-62
2022/10/03 11:00:51;;;;;;;;;;;19.10;99.90;;;;;;5068714;28;19974;-63
2022/10/03 11:03:37;;;;;;;;;;;19.20;99.90;;;;;;5088553;28;19969;-63
2022/10/03 11:06:35;;;;;;;;;;;19.40;99.90;;;;;;5092779;28;20344;-63
2022/10/03 11:09:17;;;;;;;;;;;19.90;99.90;;;;;;5092524;28;19969;-63
2022/10/03 11:12:14;;;;;;;;;;;20.40;99.90;;;;;;5092487;28;19961;-63
2022/10/03 11:15:03;;;;;;;;;;;20.40;99.90;;;;;;5092488;28;19969;-63
2022/10/03 11:18:01;;;;;;;;;;;19.80;99.90;;;;;;5092771;28;19973;-62
2022/10/03 11:20:58;;;;;;;;;;;19.10;99.90;;;;;;5092270;28;19962;-63
2022/10/03 11:23:45;;;;;;;;;;;18.70;99.90;;;;;;5050007;28;20398;-63
2022/10/03 11:26:36;;;;;;;;;;;18.30;99.90;;;;;;5088117;28;19988;-63
2022/10/03 11:29:22;;;;;;;;;;;18.20;99.90;;;;;;5092509;28;19962;-63
2022/10/03 11:32:18;;;;;;;;;;;18.20;99.90;;;;;;5085639;28;19962;-63
2022/10/03 11:35:07;;;;;;;;;;;18.70;99.90;;;;;;5092263;28;19967;-62
2022/10/03 11:37:39;;;;;;;;;;;19.00;99.90;;;;;;5087454;28;20392;-63
2022/10/03 11:40:18;;;;;;;;;;;19.00;99.90;;;;;;5093984;28;19962;-63
2022/10/03 11:42:52;;;;;;;;;;;19.20;99.90;;;;;;5092357;28;19962;-63
2022/10/03 11:45:24;;;;;;;;;;;19.30;99.90;;;;;;5091943;28;19962;-63
2022/10/03 11:47:57;;;;;;;;;;;19.70;99.90;;;;;;5092273;28;20019;-62
2022/10/03 11:50:30;;;;;;;;;;;20.00;99.90;;;;;;5091809;28;19942;-62
2022/10/03 11:53:16;;;;;;;;;;;20.00;99.90;;;;;;5092134;28;20371;-63
2022/10/03 11:55:50;;;;;;;;;;;19.90;99.90;;;;;;5091938;28;20009;-63
2022/10/03 11:58:32;;;;;;;;;;;19.70;99.90;;;;;;5092041;28;19961;-63
2022/10/03 12:01:07;;;;;;;;;;;19.40;99.90;;;;;;5113733;22;19970;-72
2022/10/03 12:03:37;;;;;;;;;;;19.20;99.90;;;;;;5078517;28;19965;-72
2022/10/03 12:09:02;;;;;;;;;;;18.90;99.90;;;;;;5071904;28;19962;-73
2022/10/03 12:11:33;;;;;;;;;;;18.70;99.90;;;;;;5069177;28;19962;-73
2022/10/03 12:14:12;;;;;;;;;;;18.60;99.90;;;;;;5071258;28;19978;-73
2022/10/03 12:16:52;;;;;;;;;;;18.40;99.90;;;;;;5065868;28;19963;-73
2022/10/03 12:19:23;;;;;;;;;;;18.20;99.90;;;;;;5071513;28;19963;-73
2022/10/03 12:21:55;;;;;;;;;;;18.10;99.90;;;;;;5071249;28;19962;-73
2022/10/03 12:24:25;;;;;;;;;;;18.10;99.90;;;;;;5071518;28;19996;-73
2022/10/03 12:26:58;;;;;;;;;;;18.10;99.90;;;;;;5071639;28;19967;-73
2022/10/03 12:29:27;;;;;;;;;;;18.20;99.90;;;;;;5071450;28;19962;-73
2022/10/03 12:32:09;;;;;;;;;;;18.10;99.90;;;;;;5071276;28;19974;-73
2022/10/03 12:34:38;;;;;;;;;;;18.00;99.90;;;;;;5071291;28;19974;-72
2022/10/03 12:37:16;;;;;;;;;;;18.00;99.90;;;;;;5071343;28;19966;-73
2022/10/03 12:39:46;;;;;;;;;;;18.00;99.90;;;;;;5070946;28;20137;-72
2022/10/03 12:42:23;;;;;;;;;;;17.90;99.90;;;;;;5074440;28;19970;-73
2022/10/03 12:44:55;;;;;;;;;;;17.90;99.90;;;;;;5075232;28;19973;-73
2022/10/03 12:47:30;;;;;;;;;;;17.90;99.90;;;;;;5071386;28;20069;-73
2022/10/03 12:50:28;;;;;;;;;;;18.00;99.90;;;;;;5070981;28;19963;-73
2022/10/03 12:53:05;;;;;;;;;;;18.20;99.90;;;;;;5075031;28;19962;-73
2022/10/03 12:55:34;;;;;;;;;;;18.20;99.90;;;;;;5075125;28;20057;-73
2022/10/03 12:58:08;;;;;;;;;;;18.50;99.90;;;;;;5075028;28;19962;-73
2022/10/03 13:00:42;;;;;;;;;;;18.60;99.90;;;;;;5074577;28;19962;-73
2022/10/03 13:03:21;;;;;;;;;;;18.70;99.90;;;;;;5074791;28;19963;-72
2022/10/03 13:05:59;;;;;;;;;;;18.90;99.90;;;;;;5074720;28;20062;-72
2022/10/03 13:08:43;;;;;;;;;;;19.10;99.90;;;;;;5074884;28;20400;-72
2022/10/03 13:11:22;;;;;;;;;;;19.30;99.90;;;;;;5080313;28;19962;-72
2022/10/03 13:13:56;;;;;;;;;;;19.30;99.90;;;;;;5080277;28;19962;-72
2022/10/03 13:16:27;;;;;;;;;;;19.20;99.90;;;;;;5074415;28;19963;-72
2022/10/03 13:18:58;;;;;;;;;;;19.40;99.90;;;;;;5074675;28;19962;-72
2022/10/03 13:21:50;;;;;;;;;;;19.70;99.90;;;;;;5074267;28;19966;-72
2022/10/03 13:24:22;;;;;;;;;;;20.00;99.90;;;;;;5074642;28;19986;-72
2022/10/03 13:26:54;;;;;;;;;;;20.20;99.90;;;;;;5074615;28;19963;-72
2022/10/03 13:29:25;;;;;;;;;;;20.30;99.90;;;;;;5074309;28;19966;-73
2022/10/03 13:32:05;;;;;;;;;;;20.20;99.90;;;;;;5074200;28;20446;-72
2022/10/03 13:34:35;;;;;;;;;;;20.00;99.90;;;;;;5074425;28;19984;-72
2022/10/03 13:37:08;;;;;;;;;;;19.60;99.90;;;;;;5074330;28;20338;-72
2022/10/03 13:39:45;;;;;;;;;;;19.50;99.90;;;;;;5074178;28;19967;-72
2022/10/03 13:42:18;;;;;;;;;;;19.10;99.90;;;;;;5078131;28;20008;-72
2022/10/03 13:44:51;;;;;;;;;;;18.70;99.90;;;;;;5074712;28;20012;-72
2022/10/03 13:47:27;;;;;;;;;;;18.60;99.90;;;;;;5074071;28;20431;-72
2022/10/03 13:49:57;;;;;;;;;;;18.40;99.90;;;;;;5073914;28;19988;-73
2022/10/03 13:52:30;;;;;;;;;;;18.10;99.90;;;;;;5073742;28;19962;-72
2022/10/03 13:55:08;;;;;;;;;;;18.10;99.90;;;;;;5074507;28;20335;-72
2022/10/03 13:57:38;;;;;;;;;;;17.90;99.90;;;;;;5073971;28;20352;-72
2022/10/03 14:00:11;;;;;;;;;;;17.80;99.90;;;;;;5073584;28;19963;-72
2022/10/03 14:02:46;;;;;;;;;;;17.80;99.90;;;;;;5073104;28;20451;-72
2022/10/03 14:05:32;;;;;;;;;;;17.80;99.90;;;;;;5073954;28;20420;-73
2022/10/03 14:08:07;;;;;;;;;;;17.80;99.90;;;;;;5073855;28;19962;-72
2022/10/03 14:10:51;;;;;;;;;;;17.70;99.90;;;;;;5076547;28;20005;-73
2022/10/03 14:13:26;;;;;;;;;;;17.50;99.90;;;;;;5083030;28;19966;-72
2022/10/03 14:15:58;;;;;;;;;;;17.30;99.90;;;;;;5067265;28;19969;-72
2022/10/03 14:18:36;;;;;;;;;;;17.40;99.90;;;;;;5073629;28;19962;-72
2022/10/03 14:21:24;;;;;;;;;;;17.40;99.90;;;;;;5073178;28;19973;-72
2022/10/03 14:23:58;;;;;;;;;;;17.40;99.90;;;;;;5073549;28;19962;-71
2022/10/03 14:26:30;;;;;;;;;;;17.40;99.90;;;;;;5073626;28;19973;-72
2022/10/03 14:29:01;;;;;;;;;;;17.30;99.90;;;;;;5073251;28;19962;-73
2022/10/03 14:31:33;;;;;;;;;;;17.40;99.90;;;;;;5072909;28;19969;-73
2022/10/03 14:34:06;;;;;;;;;;;17.30;99.90;;;;;;5067134;28;19966;-72
2022/10/03 14:36:38;;;;;;;;;;;17.30;99.90;;;;;;5067709;28;20353;-73
2022/10/03 14:39:14;;;;;;;;;;;17.30;99.90;;;;;;5073704;28;20053;-73
2022/10/03 14:41:45;;;;;;;;;;;17.30;99.90;;;;;;5073641;28;19988;-72
2022/10/03 14:44:15;;;;;;;;;;;17.30;99.90;;;;;;5073485;28;19985;-72
2022/10/03 14:46:47;;;;;;;;;;;17.30;99.90;;;;;;5073182;28;19963;-72
2022/10/03 14:49:18;;;;;;;;;;;17.40;99.90;;;;;;5072878;28;20424;-72
2022/10/03 14:52:08;;;;;;;;;;;17.40;99.90;;;;;;5072921;28;20430;-72
2022/10/03 14:54:38;;;;;;;;;;;17.20;99.90;;;;;;5072853;28;20439;-72
2022/10/03 14:57:13;;;;;;;;;;;17.10;99.90;;;;;;5066764;28;20045;-72
2022/10/03 14:59:41;;;;;;;;;;;17.10;99.90;;;;;;5072406;28;19972;-73
2022/10/03 15:02:26;;;;;;;;;;;17.20;99.90;;;;;;5072505;28;19966;-72
2022/10/03 15:04:55;;;;;;;;;;;17.30;99.90;;;;;;5072682;28;20345;-73
2022/10/03 15:07:33;;;;;;;;;;;17.40;99.90;;;;;;5072471;28;20461;-72
2022/10/03 15:10:05;;;;;;;;;;;17.60;99.90;;;;;;5072365;28;20294;-73
2022/10/03 15:12:36;;;;;;;;;;;17.70;99.90;;;;;;5080577;28;21357;-73
2022/10/03 15:15:05;;;;;;;;;;;17.60;99.90;;;;;;5071937;28;19977;-73
2022/10/03 15:17:36;;;;;;;;;;;17.40;99.90;;;;;;5071894;28;19971;-73
2022/10/03 15:20:05;;;;;;;;;;;17.40;99.90;;;;;;5065756;28;20338;-71
2022/10/03 15:22:34;;;;;;;;;;;17.30;99.90;;;;;;5066016;28;19966;-73
2022/10/03 15:25:05;;;;;;;;;;;17.30;99.90;;;;;;5065906;28;19966;-73
2022/10/03 15:27:34;;;;;;;;;;;17.20;99.90;;;;;;5066105;28;19973;-72
2022/10/03 15:30:03;;;;;;;;;;;17.10;99.90;;;;;;5071858;28;19971;-73
2022/10/03 15:32:34;;;;;;;;;;;17.10;99.90;;;;;;5072206;28;20512;-73